sensor_id;sensor_type;location;lat;lon;timestamp;pressure;altitude;pressure_sealevel;temperature;humidity
62600;BME280;48671;48.922;2.346;2022-12-18T00:02:00;102296.41;;;-1.96;67.38
62600;BME280;48671;48.922;2.346;2022-12-18T00:04:26;102296.34;;;-1.98;66.84
62600;BME280;48671;48.922;2.346;2022-12-18T00:06:52;102295.47;;;-1.98;66.75
62600;BME280;48671;48.922;2.346;2022-12-18T00:09:17;102295.41;;;-2.00;67.97
62600;BME280;48671;48.922;2.346;2022-12-18T00:11:43;102291.94;;;-2.02;67.06
62600;BME280;48671;48.922;2.346;2022-12-18T00:14:09;102293.66;;;-2.01;67.32
62600;BME280;48671;48.922;2.346;2022-12-18T00:16:35;102296.91;;;-2.05;67.29
62600;BME280;48671;48.922;2.346;2022-12-18T00:19:02;102297.66;;;-2.07;66.84
62600;BME280;48671;48.922;2.346;2022-12-18T00:21:29;102299.34;;;-2.08;67.10
62600;BME280;48671;48.922;2.346;2022-12-18T00:23:55;102288.16;;;-2.12;67.76
62600;BME280;48671;48.922;2.346;2022-12-18T00:26:25;102287.34;;;-2.10;67.26
62600;BME280;48671;48.922;2.346;2022-12-18T00:28:51;102287.34;;;-2.10;67.64
62600;BME280;48671;48.922;2.346;2022-12-18T00:31:20;102295.97;;;-2.07;67.44
62600;BME280;48671;48.922;2.346;2022-12-18T00:33:46;102290.13;;;-2.04;67.51
62600;BME280;48671;48.922;2.346;2022-12-18T00:38:38;102300.28;;;-2.06;66.72
62600;BME280;48671;48.922;2.346;2022-12-18T00:41:04;102299.53;;;-2.03;66.96
62600;BME280;48671;48.922;2.346;2022-12-18T00:43:30;102302.88;;;-2.04;67.58
62600;BME280;48671;48.922;2.346;2022-12-18T00:45:55;102292.53;;;-2.09;67.30
62600;BME280;48671;48.922;2.346;2022-12-18T00:48:21;102290.03;;;-2.07;67.47
62600;BME280;48671;48.922;2.346;2022-12-18T00:50:48;102290.88;;;-2.07;67.41
62600;BME280;48671;48.922;2.346;2022-12-18T00:53:13;102290.38;;;-1.98;66.86
62600;BME280;48671;48.922;2.346;2022-12-18T00:55:40;102292.31;;;-1.93;67.62
62600;BME280;48671;48.922;2.346;2022-12-18T00:58:06;102289.78;;;-1.91;67.45
62600;BME280;48671;48.922;2.346;2022-12-18T01:00:31;102295.41;;;-2.00;67.13
62600;BME280;48671;48.922;2.346;2022-12-18T01:02:56;102285.75;;;-2.08;67.21
62600;BME280;48671;48.922;2.346;2022-12-18T01:05:22;102281.09;;;-2.19;67.29
62600;BME280;48671;48.922;2.346;2022-12-18T01:07:47;102275.94;;;-2.20;67.58
62600;BME280;48671;48.922;2.346;2022-12-18T01:10:13;102278.59;;;-2.17;67.49
62600;BME280;48671;48.922;2.346;2022-12-18T01:12:38;102283.81;;;-2.14;67.40
62600;BME280;48671;48.922;2.346;2022-12-18T01:15:05;102275.34;;;-2.13;67.12
62600;BME280;48671;48.922;2.346;2022-12-18T01:17:31;102271.13;;;-2.13;67.51
62600;BME280;48671;48.922;2.346;2022-12-18T01:19:56;102269.50;;;-2.10;66.64
62600;BME280;48671;48.922;2.346;2022-12-18T01:22:21;102275.53;;;-2.08;66.83
62600;BME280;48671;48.922;2.346;2022-12-18T01:24:47;102271.19;;;-2.11;66.67
62600;BME280;48671;48.922;2.346;2022-12-18T01:27:12;102271.06;;;-2.14;67.21
62600;BME280;48671;48.922;2.346;2022-12-18T01:29:39;102271.06;;;-2.14;67.26
62600;BME280;48671;48.922;2.346;2022-12-18T01:32:04;102277.66;;;-2.19;67.52
62600;BME280;48671;48.922;2.346;2022-12-18T01:34:30;102278.59;;;-2.17;67.64
62600;BME280;48671;48.922;2.346;2022-12-18T01:36:56;102273.44;;;-2.19;67.89
62600;BME280;48671;48.922;2.346;2022-12-18T01:39:22;102276.00;;;-2.19;67.09
62600;BME280;48671;48.922;2.346;2022-12-18T01:41:47;102274.25;;;-2.20;67.86
62600;BME280;48671;48.922;2.346;2022-12-18T01:47:41;102257.97;;;-2.23;67.41
62600;BME280;48671;48.922;2.346;2022-12-18T01:50:56;102266.31;;;-2.27;67.48
62600;BME280;48671;48.922;2.346;2022-12-18T01:55:37;102268.03;;;-2.26;67.26
62600;BME280;48671;48.922;2.346;2022-12-18T01:58:03;102255.38;;;-2.25;67.35
62600;BME280;48671;48.922;2.346;2022-12-18T02:00:30;102251.13;;;-2.24;66.78
62600;BME280;48671;48.922;2.346;2022-12-18T02:02:55;102252.00;;;-2.24;67.59
62600;BME280;48671;48.922;2.346;2022-12-18T02:11:42;102240.56;;;-2.33;67.25
62600;BME280;48671;48.922;2.346;2022-12-18T02:16:55;102240.56;;;-2.33;67.06
62600;BME280;48671;48.922;2.346;2022-12-18T02:19:44;102233.78;;;-2.33;67.05
62600;BME280;48671;48.922;2.346;2022-12-18T02:25:11;102245.75;;;-2.32;67.33
62600;BME280;48671;48.922;2.346;2022-12-18T02:27:39;102229.44;;;-2.36;67.04
62600;BME280;48671;48.922;2.346;2022-12-18T02:30:07;102238.16;;;-2.30;67.50
62600;BME280;48671;48.922;2.346;2022-12-18T02:32:38;102221.78;;;-2.36;67.03
62600;BME280;48671;48.922;2.346;2022-12-18T02:35:06;102228.53;;;-2.38;67.23
62600;BME280;48671;48.922;2.346;2022-12-18T02:37:34;102223.47;;;-2.36;67.38
62600;BME280;48671;48.922;2.346;2022-12-18T02:40:02;102226.69;;;-2.42;67.67
62600;BME280;48671;48.922;2.346;2022-12-18T02:42:29;102207.09;;;-2.43;67.04
62600;BME280;48671;48.922;2.346;2022-12-18T02:44:54;102205.47;;;-2.41;67.62
62600;BME280;48671;48.922;2.346;2022-12-18T02:47:22;102209.63;;;-2.43;67.91
62600;BME280;48671;48.922;2.346;2022-12-18T03:01:30;102200.13;;;-2.47;68.36
62600;BME280;48671;48.922;2.346;2022-12-18T03:03:59;102195.97;;;-2.45;67.61
62600;BME280;48671;48.922;2.346;2022-12-18T03:06:32;102186.56;;;-2.46;67.60
62600;BME280;48671;48.922;2.346;2022-12-18T03:09:06;102190.69;;;-2.49;68.05
62600;BME280;48671;48.922;2.346;2022-12-18T03:11:34;102197.47;;;-2.50;67.64
62600;BME280;48671;48.922;2.346;2022-12-18T03:14:21;102198.41;;;-2.48;67.97
62600;BME280;48671;48.922;2.346;2022-12-18T03:16:51;102196.72;;;-2.47;68.22
62600;BME280;48671;48.922;2.346;2022-12-18T03:19:22;102200.22;;;-2.45;67.66
62600;BME280;48671;48.922;2.346;2022-12-18T03:21:53;102197.59;;;-2.47;67.57
62600;BME280;48671;48.922;2.346;2022-12-18T03:24:20;102203.66;;;-2.43;67.73
62600;BME280;48671;48.922;2.346;2022-12-18T03:26:49;102196.97;;;-2.41;67.99
62600;BME280;48671;48.922;2.346;2022-12-18T03:29:24;102195.31;;;-2.39;67.79
62600;BME280;48671;48.922;2.346;2022-12-18T03:31:54;102199.50;;;-2.41;68.29
62600;BME280;48671;48.922;2.346;2022-12-18T03:34:24;102187.63;;;-2.41;68.64
62600;BME280;48671;48.922;2.346;2022-12-18T03:36:53;102191.28;;;-2.34;67.93
62600;BME280;48671;48.922;2.346;2022-12-18T03:39:19;102193.00;;;-2.33;67.65
62600;BME280;48671;48.922;2.346;2022-12-18T03:41:48;102193.19;;;-2.28;67.61
62600;BME280;48671;48.922;2.346;2022-12-18T03:44:27;102192.41;;;-2.26;68.22
62600;BME280;48671;48.922;2.346;2022-12-18T03:47:03;102197.63;;;-2.23;68.48
62600;BME280;48671;48.922;2.346;2022-12-18T03:50:10;102198.47;;;-2.24;68.42
62600;BME280;48671;48.922;2.346;2022-12-18T03:53:06;102196.66;;;-2.26;68.02
62600;BME280;48671;48.922;2.346;2022-12-18T03:55:35;102177.78;;;-2.31;67.98
62600;BME280;48671;48.922;2.346;2022-12-18T03:58:03;102181.19;;;-2.31;67.59
62600;BME280;48671;48.922;2.346;2022-12-18T04:00:30;102171.63;;;-2.37;68.10
62600;BME280;48671;48.922;2.346;2022-12-18T04:02:57;102169.09;;;-2.37;67.78
62600;BME280;48671;48.922;2.346;2022-12-18T04:05:26;102156.31;;;-2.38;67.51
62600;BME280;48671;48.922;2.346;2022-12-18T04:07:54;102166.38;;;-2.41;68.46
62600;BME280;48671;48.922;2.346;2022-12-18T04:10:20;102156.06;;;-2.44;68.84
62600;BME280;48671;48.922;2.346;2022-12-18T04:12:45;102164.63;;;-2.42;68.53
62600;BME280;48671;48.922;2.346;2022-12-18T04:15:11;102159.47;;;-2.44;68.31
62600;BME280;48671;48.922;2.346;2022-12-18T04:17:38;102161.16;;;-2.44;68.61
62600;BME280;48671;48.922;2.346;2022-12-18T04:20:04;102175.75;;;-2.40;68.60
62600;BME280;48671;48.922;2.346;2022-12-18T04:22:30;102168.06;;;-2.42;67.53
62600;BME280;48671;48.922;2.346;2022-12-18T04:24:55;102179.03;;;-2.43;67.70
62600;BME280;48671;48.922;2.346;2022-12-18T04:27:20;102180.63;;;-2.46;67.96
62600;BME280;48671;48.922;2.346;2022-12-18T04:29:46;102173.16;;;-2.42;67.61
62600;BME280;48671;48.922;2.346;2022-12-18T04:32:11;102171.47;;;-2.41;68.34
62600;BME280;48671;48.922;2.346;2022-12-18T04:34:36;102170.66;;;-2.40;67.75
62600;BME280;48671;48.922;2.346;2022-12-18T04:37:02;102170.63;;;-2.42;68.07
62600;BME280;48671;48.922;2.346;2022-12-18T04:39:27;102166.19;;;-2.46;67.98
62600;BME280;48671;48.922;2.346;2022-12-18T04:41:53;102174.94;;;-2.39;68.18
62600;BME280;48671;48.922;2.346;2022-12-18T04:44:18;102171.47;;;-2.41;68.43
62600;BME280;48671;48.922;2.346;2022-12-18T04:46:43;102175.72;;;-2.42;68.58
62600;BME280;48671;48.922;2.346;2022-12-18T04:49:09;102178.19;;;-2.43;67.99
62600;BME280;48671;48.922;2.346;2022-12-18T04:51:36;102185.91;;;-2.42;68.50
62600;BME280;48671;48.922;2.346;2022-12-18T04:54:01;102181.66;;;-2.41;68.03
62600;BME280;48671;48.922;2.346;2022-12-18T04:56:27;102174.78;;;-2.44;68.29
62600;BME280;48671;48.922;2.346;2022-12-18T04:58:52;102168.69;;;-2.47;68.12
62600;BME280;48671;48.922;2.346;2022-12-18T05:01:18;102172.97;;;-2.46;68.57
62600;BME280;48671;48.922;2.346;2022-12-18T05:03:43;102175.47;;;-2.48;68.46
62600;BME280;48671;48.922;2.346;2022-12-18T05:06:09;102184.03;;;-2.46;68.15
62600;BME280;48671;48.922;2.346;2022-12-18T05:08:34;102186.44;;;-2.49;68.94
62600;BME280;48671;48.922;2.346;2022-12-18T05:11:04;102185.72;;;-2.46;68.76
62600;BME280;48671;48.922;2.346;2022-12-18T05:13:30;102170.31;;;-2.49;68.86
62600;BME280;48671;48.922;2.346;2022-12-18T05:15:56;102186.53;;;-2.47;68.05
62600;BME280;48671;48.922;2.346;2022-12-18T05:18:23;102189.94;;;-2.47;68.53
62600;BME280;48671;48.922;2.346;2022-12-18T05:20:50;102188.13;;;-2.49;68.78
62600;BME280;48671;48.922;2.346;2022-12-18T05:23:15;102182.13;;;-2.51;68.59
62600;BME280;48671;48.922;2.346;2022-12-18T05:25:41;102192.38;;;-2.50;68.82
62600;BME280;48671;48.922;2.346;2022-12-18T05:28:06;102196.66;;;-2.49;68.41
62600;BME280;48671;48.922;2.346;2022-12-18T05:30:32;102205.13;;;-2.50;68.81
62600;BME280;48671;48.922;2.346;2022-12-18T05:32:57;102196.44;;;-2.55;69.10
62600;BME280;48671;48.922;2.346;2022-12-18T05:35:22;102208.47;;;-2.51;68.62
62600;BME280;48671;48.922;2.346;2022-12-18T05:37:48;102210.22;;;-2.50;68.47
62600;BME280;48671;48.922;2.346;2022-12-18T05:40:13;102198.34;;;-2.49;68.18
62600;BME280;48671;48.922;2.346;2022-12-18T05:42:38;102204.28;;;-2.49;69.16
62600;BME280;48671;48.922;2.346;2022-12-18T05:45:05;102193.31;;;-2.48;68.30
62600;BME280;48671;48.922;2.346;2022-12-18T05:47:30;102196.09;;;-2.42;68.75
62600;BME280;48671;48.922;2.346;2022-12-18T05:49:56;102181.47;;;-2.46;68.14
62600;BME280;48671;48.922;2.346;2022-12-18T05:52:21;102187.50;;;-2.44;68.68
62600;BME280;48671;48.922;2.346;2022-12-18T05:54:47;102187.41;;;-2.47;68.13
62600;BME280;48671;48.922;2.346;2022-12-18T05:57:12;102186.56;;;-2.46;68.63
62600;BME280;48671;48.922;2.346;2022-12-18T05:59:37;102182.25;;;-2.48;68.13
62600;BME280;48671;48.922;2.346;2022-12-18T06:02:03;102177.16;;;-2.48;68.47
62600;BME280;48671;48.922;2.346;2022-12-18T06:04:29;102171.16;;;-2.49;68.15
62600;BME280;48671;48.922;2.346;2022-12-18T06:06:55;102177.81;;;-2.52;68.81
62600;BME280;48671;48.922;2.346;2022-12-18T06:09:20;102161.50;;;-2.57;68.61
62600;BME280;48671;48.922;2.346;2022-12-18T06:11:46;102172.81;;;-2.51;68.79
62600;BME280;48671;48.922;2.346;2022-12-18T06:14:11;102167.72;;;-2.51;68.60
62600;BME280;48671;48.922;2.346;2022-12-18T06:16:36;102169.41;;;-2.51;68.54
62600;BME280;48671;48.922;2.346;2022-12-18T06:19:03;102160.09;;;-2.49;68.91
62600;BME280;48671;48.922;2.346;2022-12-18T06:21:30;102157.56;;;-2.49;68.38
62600;BME280;48671;48.922;2.346;2022-12-18T06:23:55;102161.78;;;-2.50;68.41
62600;BME280;48671;48.922;2.346;2022-12-18T06:26:21;102163.47;;;-2.50;68.50
62600;BME280;48671;48.922;2.346;2022-12-18T06:28:47;102159.09;;;-2.54;68.77
62600;BME280;48671;48.922;2.346;2022-12-18T06:31:12;102159.81;;;-2.57;68.81
62600;BME280;48671;48.922;2.346;2022-12-18T06:33:38;102171.00;;;-2.53;68.61
62600;BME280;48671;48.922;2.346;2022-12-18T06:36:08;102172.72;;;-2.52;68.83
62600;BME280;48671;48.922;2.346;2022-12-18T06:38:36;102166.78;;;-2.53;68.01
62600;BME280;48671;48.922;2.346;2022-12-18T06:41:14;102167.50;;;-2.55;68.26
62600;BME280;48671;48.922;2.346;2022-12-18T06:43:40;102165.09;;;-2.52;67.99
62600;BME280;48671;48.922;2.346;2022-12-18T06:46:05;102155.75;;;-2.52;68.74
62600;BME280;48671;48.922;2.346;2022-12-18T06:48:31;102151.44;;;-2.54;68.46
62600;BME280;48671;48.922;2.346;2022-12-18T06:50:57;102159.09;;;-2.54;68.58
62600;BME280;48671;48.922;2.346;2022-12-18T06:53:23;102158.25;;;-2.53;67.86
62600;BME280;48671;48.922;2.346;2022-12-18T06:55:48;102150.56;;;-2.55;68.25
62600;BME280;48671;48.922;2.346;2022-12-18T06:58:14;102152.09;;;-2.59;68.08
62600;BME280;48671;48.922;2.346;2022-12-18T07:00:39;102146.03;;;-2.62;68.22
62600;BME280;48671;48.922;2.346;2022-12-18T07:03:04;102151.00;;;-2.65;68.24
62600;BME280;48671;48.922;2.346;2022-12-18T07:05:30;102129.59;;;-2.70;68.35
62600;BME280;48671;48.922;2.346;2022-12-18T07:07:55;102119.22;;;-2.75;68.31
62600;BME280;48671;48.922;2.346;2022-12-18T07:10:20;102124.25;;;-2.76;68.06
62600;BME280;48671;48.922;2.346;2022-12-18T07:12:46;102119.06;;;-2.79;68.87
62600;BME280;48671;48.922;2.346;2022-12-18T07:15:11;102132.84;;;-2.74;68.42
62600;BME280;48671;48.922;2.346;2022-12-18T07:17:36;102128.66;;;-2.72;68.53
62600;BME280;48671;48.922;2.346;2022-12-18T07:20:02;102121.84;;;-2.73;68.40
62600;BME280;48671;48.922;2.346;2022-12-18T07:22:28;102130.28;;;-2.74;68.92
62600;BME280;48671;48.922;2.346;2022-12-18T07:24:53;102125.94;;;-2.77;68.65
62600;BME280;48671;48.922;2.346;2022-12-18T07:27:18;102133.84;;;-2.71;68.23
62600;BME280;48671;48.922;2.346;2022-12-18T07:29:44;102130.22;;;-2.76;68.06
62600;BME280;48671;48.922;2.346;2022-12-18T07:32:09;102130.69;;;-2.86;68.17
62600;BME280;48671;48.922;2.346;2022-12-18T07:34:34;102132.38;;;-2.87;68.66
62600;BME280;48671;48.922;2.346;2022-12-18T07:37:00;102136.47;;;-2.90;68.74
62600;BME280;48671;48.922;2.346;2022-12-18T07:39:25;102133.94;;;-2.90;67.98
62600;BME280;48671;48.922;2.346;2022-12-18T07:41:50;102150.06;;;-2.90;68.07
62600;BME280;48671;48.922;2.346;2022-12-18T07:44:35;102148.25;;;-2.92;68.67
62600;BME280;48671;48.922;2.346;2022-12-18T07:47:00;102165.41;;;-2.88;68.95
62600;BME280;48671;48.922;2.346;2022-12-18T07:49:26;102161.94;;;-2.90;68.73
62600;BME280;48671;48.922;2.346;2022-12-18T07:51:54;102169.63;;;-2.89;68.45
62600;BME280;48671;48.922;2.346;2022-12-18T07:54:19;102154.91;;;-2.96;68.70
62600;BME280;48671;48.922;2.346;2022-12-18T07:56:45;102168.72;;;-2.91;69.25
62600;BME280;48671;48.922;2.346;2022-12-18T07:59:10;102157.47;;;-2.96;68.99
62600;BME280;48671;48.922;2.346;2022-12-18T08:01:35;102164.38;;;-2.93;68.24
62600;BME280;48671;48.922;2.346;2022-12-18T08:04:01;102165.47;;;-2.87;68.65
62600;BME280;48671;48.922;2.346;2022-12-18T08:06:27;102156.97;;;-2.87;68.03
62600;BME280;48671;48.922;2.346;2022-12-18T08:08:56;102140.88;;;-2.86;68.88
62600;BME280;48671;48.922;2.346;2022-12-18T08:11:25;102133.41;;;-2.82;69.06
62600;BME280;48671;48.922;2.346;2022-12-18T08:13:53;102135.03;;;-2.84;68.64
62600;BME280;48671;48.922;2.346;2022-12-18T08:16:20;102135.81;;;-2.85;68.18
62600;BME280;48671;48.922;2.346;2022-12-18T08:18:49;102144.34;;;-2.84;69.24
62600;BME280;48671;48.922;2.346;2022-12-18T08:21:19;102152.03;;;-2.83;68.61
62600;BME280;48671;48.922;2.346;2022-12-18T08:23:47;102151.91;;;-2.86;68.62
62600;BME280;48671;48.922;2.346;2022-12-18T08:26:13;102159.56;;;-2.86;68.36
62600;BME280;48671;48.922;2.346;2022-12-18T08:28:39;102158.13;;;-2.79;70.32
62600;BME280;48671;48.922;2.346;2022-12-18T08:31:04;102153.78;;;-2.37;70.05
62600;BME280;48671;48.922;2.346;2022-12-18T08:33:30;102153.63;;;-1.95;68.81
62600;BME280;48671;48.922;2.346;2022-12-18T08:35:55;102163.59;;;-1.77;67.47
62600;BME280;48671;48.922;2.346;2022-12-18T08:38:20;102169.84;;;-1.69;66.24
62600;BME280;48671;48.922;2.346;2022-12-18T08:40:46;102176.19;;;-1.81;66.47
62600;BME280;48671;48.922;2.346;2022-12-18T08:43:11;102180.09;;;-1.91;66.21
62600;BME280;48671;48.922;2.346;2022-12-18T08:45:55;102167.69;;;-2.06;66.57
62600;BME280;48671;48.922;2.346;2022-12-18T08:48:21;102170.78;;;-2.13;66.11
62600;BME280;48671;48.922;2.346;2022-12-18T08:50:56;102175.78;;;-2.16;67.18
62600;BME280;48671;48.922;2.346;2022-12-18T08:53:22;102179.13;;;-2.19;66.54
62600;BME280;48671;48.922;2.346;2022-12-18T08:55:47;102185.81;;;-2.21;67.03
62600;BME280;48671;48.922;2.346;2022-12-18T08:58:12;102187.44;;;-2.23;66.73
62600;BME280;48671;48.922;2.346;2022-12-18T09:00:38;102183.97;;;-2.25;67.78
62600;BME280;48671;48.922;2.346;2022-12-18T09:03:03;102195.78;;;-2.27;67.15
62600;BME280;48671;48.922;2.346;2022-12-18T09:05:30;102190.66;;;-2.28;67.67
62600;BME280;48671;48.922;2.346;2022-12-18T09:07:55;102188.97;;;-2.28;67.64
62600;BME280;48671;48.922;2.346;2022-12-18T09:10:20;102175.28;;;-2.30;67.52
62600;BME280;48671;48.922;2.346;2022-12-18T09:12:45;102177.81;;;-2.30;67.24
62600;BME280;48671;48.922;2.346;2022-12-18T09:15:11;102171.75;;;-2.33;67.62
62600;BME280;48671;48.922;2.346;2022-12-18T09:17:36;102164.09;;;-2.33;67.44
62600;BME280;48671;48.922;2.346;2022-12-18T09:20:02;102174.41;;;-2.30;67.39
62600;BME280;48671;48.922;2.346;2022-12-18T09:22:27;102175.16;;;-2.33;67.50
62600;BME280;48671;48.922;2.346;2022-12-18T09:24:53;102164.06;;;-2.35;67.93
62600;BME280;48671;48.922;2.346;2022-12-18T09:27:19;102171.81;;;-2.32;68.01
62600;BME280;48671;48.922;2.346;2022-12-18T09:29:44;102164.06;;;-2.35;68.04
62600;BME280;48671;48.922;2.346;2022-12-18T09:32:09;102165.19;;;-2.27;67.92
62600;BME280;48671;48.922;2.346;2022-12-18T09:34:35;102155.75;;;-2.29;67.37
62600;BME280;48671;48.922;2.346;2022-12-18T09:37:00;102159.25;;;-2.27;66.96
62600;BME280;48671;48.922;2.346;2022-12-18T09:39:25;102163.63;;;-2.23;67.33
62600;BME280;48671;48.922;2.346;2022-12-18T09:41:53;102167.28;;;-2.17;67.27
62600;BME280;48671;48.922;2.346;2022-12-18T09:44:24;102165.53;;;-2.18;67.40
62600;BME280;48671;48.922;2.346;2022-12-18T09:46:59;102172.44;;;-2.15;67.80
62600;BME280;48671;48.922;2.346;2022-12-18T09:49:29;102162.16;;;-2.17;67.70
62600;BME280;48671;48.922;2.346;2022-12-18T09:52:07;102167.56;;;-2.09;67.85
62600;BME280;48671;48.922;2.346;2022-12-18T09:54:47;102165.03;;;-2.09;67.34
62600;BME280;48671;48.922;2.346;2022-12-18T09:57:20;102173.75;;;-2.02;67.81
62600;BME280;48671;48.922;2.346;2022-12-18T09:59:56;102164.44;;;-2.02;66.71
62600;BME280;48671;48.922;2.346;2022-12-18T10:02:25;102153.41;;;-2.01;66.70
62600;BME280;48671;48.922;2.346;2022-12-18T10:07:41;102149.28;;;-1.97;67.25
62600;BME280;48671;48.922;2.346;2022-12-18T10:10:31;102150.34;;;-1.91;67.31
62600;BME280;48671;48.922;2.346;2022-12-18T10:16:17;102147.09;;;-1.86;67.42
62600;BME280;48671;48.922;2.346;2022-12-18T10:21:53;102151.53;;;-1.81;66.25
62600;BME280;48671;48.922;2.346;2022-12-18T10:24:30;102143.09;;;-1.80;67.20
62600;BME280;48671;48.922;2.346;2022-12-18T10:27:26;102142.31;;;-1.77;66.46
62600;BME280;48671;48.922;2.346;2022-12-18T10:29:52;102132.09;;;-1.77;66.37
62600;BME280;48671;48.922;2.346;2022-12-18T10:32:26;102136.47;;;-1.75;67.42
62600;BME280;48671;48.922;2.346;2022-12-18T10:34:54;102149.34;;;-1.70;67.05
62600;BME280;48671;48.922;2.346;2022-12-18T10:37:24;102142.88;;;-1.60;66.71
62600;BME280;48671;48.922;2.346;2022-12-18T10:40:18;102138.84;;;-1.54;67.04
62600;BME280;48671;48.922;2.346;2022-12-18T10:42:44;102131.91;;;-1.58;65.76
62600;BME280;48671;48.922;2.346;2022-12-18T10:45:11;102136.41;;;-1.51;66.13
62600;BME280;48671;48.922;2.346;2022-12-18T10:47:42;102133.28;;;-1.44;66.74
62600;BME280;48671;48.922;2.346;2022-12-18T10:50:28;102124.72;;;-1.44;66.12
62600;BME280;48671;48.922;2.346;2022-12-18T10:52:56;102119.81;;;-1.38;66.82
62600;BME280;48671;48.922;2.346;2022-12-18T10:55:22;102115.78;;;-1.31;66.60
62600;BME280;48671;48.922;2.346;2022-12-18T10:57:47;102104.81;;;-1.29;66.31
62600;BME280;48671;48.922;2.346;2022-12-18T11:00:22;102113.63;;;-1.19;65.92
62600;BME280;48671;48.922;2.346;2022-12-18T11:02:49;102114.69;;;-1.12;66.07
62600;BME280;48671;48.922;2.346;2022-12-18T11:05:30;102113.06;;;-1.10;65.98
62600;BME280;48671;48.922;2.346;2022-12-18T11:07:56;102100.22;;;-1.12;65.83
62600;BME280;48671;48.922;2.346;2022-12-18T11:10:28;102106.38;;;-1.05;65.59
62600;BME280;48671;48.922;2.346;2022-12-18T11:12:55;102103.22;;;-0.98;65.90
62600;BME280;48671;48.922;2.346;2022-12-18T11:15:28;102103.31;;;-0.95;65.84
62600;BME280;48671;48.922;2.346;2022-12-18T11:17:54;102106.75;;;-0.95;65.33
62600;BME280;48671;48.922;2.346;2022-12-18T11:20:27;102103.50;;;-0.89;65.26
62600;BME280;48671;48.922;2.346;2022-12-18T11:23:20;102100.16;;;-0.86;65.03
62600;BME280;48671;48.922;2.346;2022-12-18T11:25:59;102100.34;;;-0.80;65.36
62600;BME280;48671;48.922;2.346;2022-12-18T11:36:17;102076.91;;;-0.67;65.71
62600;BME280;48671;48.922;2.346;2022-12-18T11:38:45;102076.16;;;-0.63;65.73
62600;BME280;48671;48.922;2.346;2022-12-18T11:44:02;102075.66;;;-0.51;65.50
62600;BME280;48671;48.922;2.346;2022-12-18T11:46:59;102074.03;;;-0.49;65.28
62600;BME280;48671;48.922;2.346;2022-12-18T11:49:29;102072.50;;;-0.42;64.98
62600;BME280;48671;48.922;2.346;2022-12-18T11:54:42;102049.50;;;-0.42;64.81
62600;BME280;48671;48.922;2.346;2022-12-18T12:00:30;102046.34;;;-0.32;65.04
62600;BME280;48671;48.922;2.346;2022-12-18T12:13:35;102049.53;;;-0.09;64.84
62600;BME280;48671;48.922;2.346;2022-12-18T12:22:03;102014.53;;;-0.10;64.44
62600;BME280;48671;48.922;2.346;2022-12-18T12:27:14;102020.88;;;0.04;64.21
62600;BME280;48671;48.922;2.346;2022-12-18T12:30:05;102022.69;;;0.10;64.69
62600;BME280;48671;48.922;2.346;2022-12-18T12:32:54;102012.59;;;0.14;63.95
62600;BME280;48671;48.922;2.346;2022-12-18T12:35:34;102013.56;;;0.19;63.92
62600;BME280;48671;48.922;2.346;2022-12-18T12:38:17;102006.72;;;0.18;63.79
62600;BME280;48671;48.922;2.346;2022-12-18T12:40:49;102004.31;;;0.25;64.12
62600;BME280;48671;48.922;2.346;2022-12-18T12:45:49;102003.69;;;0.35;63.77
62600;BME280;48671;48.922;2.346;2022-12-18T12:48:48;102009.00;;;0.42;63.87
62600;BME280;48671;48.922;2.346;2022-12-18T12:51:21;102006.50;;;0.45;63.39
62600;BME280;48671;48.922;2.346;2022-12-18T12:53:48;102012.63;;;0.51;64.15
62600;BME280;48671;48.922;2.346;2022-12-18T12:56:16;102012.72;;;0.55;63.78
62600;BME280;48671;48.922;2.346;2022-12-18T12:59:15;102001.72;;;0.59;63.26
62600;BME280;48671;48.922;2.346;2022-12-18T13:04:44;101991.50;;;0.61;63.40
62600;BME280;48671;48.922;2.346;2022-12-18T13:07:19;101994.13;;;0.64;63.07
62600;BME280;48671;48.922;2.346;2022-12-18T13:15:42;101987.31;;;0.64;63.32
62600;BME280;48671;48.922;2.346;2022-12-18T13:20:36;101975.38;;;0.65;63.32
62600;BME280;48671;48.922;2.346;2022-12-18T13:25:52;101972.84;;;0.66;63.62
62600;BME280;48671;48.922;2.346;2022-12-18T13:31:02;101981.38;;;0.65;63.54
62600;BME280;48671;48.922;2.346;2022-12-18T13:41:01;101956.69;;;0.69;63.46
62600;BME280;48671;48.922;2.346;2022-12-18T13:43:45;101954.25;;;0.75;63.98
62600;BME280;48671;48.922;2.346;2022-12-18T13:46:19;101950.88;;;0.76;64.16
62600;BME280;48671;48.922;2.346;2022-12-18T13:51:26;101957.75;;;0.79;64.17
62600;BME280;48671;48.922;2.346;2022-12-18T13:53:57;101942.41;;;0.80;63.93
62600;BME280;48671;48.922;2.346;2022-12-18T13:56:26;101943.31;;;0.82;63.74
62600;BME280;48671;48.922;2.346;2022-12-18T13:59:18;101939.13;;;0.86;63.81
62600;BME280;48671;48.922;2.346;2022-12-18T14:01:59;101933.19;;;0.88;64.24
62600;BME280;48671;48.922;2.346;2022-12-18T14:04:30;101921.25;;;0.89;64.49
62600;BME280;48671;48.922;2.346;2022-12-18T14:07:01;101919.63;;;0.92;63.89
62600;BME280;48671;48.922;2.346;2022-12-18T14:09:30;101916.22;;;0.93;64.35
62600;BME280;48671;48.922;2.346;2022-12-18T14:11:57;101917.13;;;0.96;64.51
62600;BME280;48671;48.922;2.346;2022-12-18T14:14:44;101915.50;;;1.01;64.24
62600;BME280;48671;48.922;2.346;2022-12-18T14:17:11;101915.63;;;1.07;64.71
62600;BME280;48671;48.922;2.346;2022-12-18T14:19:37;101912.25;;;1.09;64.65
62600;BME280;48671;48.922;2.346;2022-12-18T14:22:20;101908.91;;;1.12;64.54
62600;BME280;48671;48.922;2.346;2022-12-18T14:24:47;101913.25;;;1.17;64.19
62600;BME280;48671;48.922;2.346;2022-12-18T14:27:25;101915.00;;;1.20;64.14
62600;BME280;48671;48.922;2.346;2022-12-18T14:29:51;101910.88;;;1.27;64.14
62600;BME280;48671;48.922;2.346;2022-12-18T14:32:18;101908.31;;;1.27;64.74
62600;BME280;48671;48.922;2.346;2022-12-18T14:34:51;101906.63;;;1.29;64.40
62600;BME280;48671;48.922;2.346;2022-12-18T14:37:24;101904.16;;;1.33;64.86
62600;BME280;48671;48.922;2.346;2022-12-18T14:39:58;101901.69;;;1.38;64.66
62600;BME280;48671;48.922;2.346;2022-12-18T14:42:28;101898.28;;;1.40;64.82
62600;BME280;48671;48.922;2.346;2022-12-18T14:47:56;101893.22;;;1.42;64.24
62600;BME280;48671;48.922;2.346;2022-12-18T14:50:22;101901.81;;;1.46;64.69